Attica, Indiana
Current Conditions -  °F | °C
As of 5:54 PM on Wednesday 22 Oct 2014 (Local Time) from KLAF Reporting Station
Clear Clear  
Wind Chill: 56°   Ceiling: Unl
Heat Index: 56°   Visibility: 10mi
Dew Point: 38°   Wind: 5mph
Humidity: 51%   Direction: 30°NNE
Pressure: 30.27"   Gusts: NA
Location:  40.29°N, 87.25°W
Report Text: KLAF 222154Z 03004KT 10SM CLR 13/03 A3027 RMK AO2 SLP251 T01330033
Loading
Personal Weather Stations






























Interactive Weather Map New forecast layout! Learn more

10-Day Weather Forecast

Advertisements
Track Severe Weather on mobile